Mount Pleasant, Texas
Current Conditions -  °F | °C
As of 1:35 AM on Friday 19 Dec 2014 (Local Time) from KOSA Reporting Station
Overcast Overcast  
Wind Chill: 46°   Ceiling: 700
Heat Index: 46°   Visibility: 5mi
Dew Point: 45°   Wind: 3mph
Humidity: 96%   Direction: 40°NE
Pressure: 30.18"   Gusts: NA
Location:  33.16°N, 94.97°W
Report Text: KOSA 190735Z AUTO 04003KT 5SM OVC007 08/07 A3018 RMK AO1 T00780072
Loading
Personal Weather Stations






























Interactive Weather Map New forecast layout! Learn more

10-Day Weather Forecast

Advertisements
Track Severe Weather on mobile